This is the latest recevied weather packets stored in our database for station/object KD7JB. If no packets are shown the sender has not sent any weather packets the latest 10 day(s).
| Time | Temp. | Humidity | Pressure | Rain* | Wind** | Luminosity | Snow |
|---|---|---|---|---|---|---|---|
| 1777930842 | 21.67° C | 35% | 1171.8 hPa | 0 mm | - | 666 W/m² | - |
| 1777929629 | 21.67° C | 34% | 1171.9 hPa | 0 mm | - | 692 W/m² | - |
| 1777924176 | 20.56° C | 36% | 1172.9 hPa | 0 mm | - | 751 W/m² | - |
| 1777923568 | 20.56° C | 36% | 1172.8 hPa | 0 mm | - | 752 W/m² | - |
| 1777922964 | 21.11° C | 34% | 1172.7 hPa | 0 mm | - | 750 W/m² | - |
| 1777922661 | 21.11° C | 34% | 1172.9 hPa | 0 mm | - | 750 W/m² | - |
| 1777922058 | 20.56° C | 33% | 1172.9 hPa | 0 mm | - | 745 W/m² | - |
| 1777919930 | 20° C | 33% | 1173.1 hPa | 0 mm | - | 721 W/m² | - |
| 1777919628 | 20° C | 32% | 1173 hPa | 0 mm | - | 716 W/m² | - |
| 1777919325 | 20° C | 32% | 1172.9 hPa | 0 mm | - | 711 W/m² | - |
| 1777919023 | 19.44° C | 35% | 1173.1 hPa | 0 mm | - | 704 W/m² | - |
| 1777918719 | 20° C | 33% | 1173.1 hPa | 0 mm | - | 698 W/m² | - |
| 1777918417 | 19.44° C | 33% | 1173.3 hPa | 0 mm | - | 688 W/m² | - |
| 1777918116 | 19.44° C | 35% | 1173.1 hPa | 0 mm | - | 684 W/m² | - |
| 1777917813 | 19.44° C | 34% | 1173.3 hPa | 0 mm | - | 682 W/m² | - |
| 1777917512 | 20° C | 35% | 1173.4 hPa | 0 mm | - | 640 W/m² | - |
| 1777916906 | 19.44° C | 36% | 1173.1 hPa | 0 mm | - | 650 W/m² | - |
| 1777916300 | 20° C | 36% | 1173.3 hPa | 0 mm | - | 635 W/m² | - |
| 1777915997 | 20° C | 38% | 1173.1 hPa | 0 mm | - | 626 W/m² | - |
| 1777915694 | 19.44° C | 38% | 1173.1 hPa | 0 mm | - | 618 W/m² | - |
| 1777915391 | 19.44° C | 37% | 1173 hPa | 0 mm | - | 610 W/m² | - |
| 1777915086 | 18.33° C | 39% | 1173 hPa | 0 mm | - | 599 W/m² | - |
| 1777914784 | 18.33° C | 37% | 1173.1 hPa | 0 mm | - | 588 W/m² | - |
| 1777914481 | 18.89° C | 36% | 1173.3 hPa | 0 mm | - | 578 W/m² | - |
| 1777914178 | 18.89° C | 36% | 1173.1 hPa | 0 mm | - | 567 W/m² | - |
* Rain latest hour (hover to see other rain measurements)
** Current wind speed in m/s (hover to see current wind gust speed)